createdAt,value
2019-06-20T00:02:10.612Z,3.58
2019-06-20T00:04:41.333Z,3.87
2019-06-20T00:07:12.083Z,6.67
2019-06-20T00:09:42.937Z,5.03
2019-06-20T00:12:13.690Z,5.65
2019-06-20T00:14:47.347Z,4.80
2019-06-20T00:17:18.267Z,4.95
2019-06-20T00:19:49.024Z,5.78
2019-06-20T00:22:21.408Z,4.45
2019-06-20T00:24:52.460Z,3.65
2019-06-20T00:27:23.279Z,3.70
2019-06-20T00:29:54.315Z,4.28
2019-06-20T00:32:25.052Z,4.50
2019-06-20T00:34:56.002Z,6.28
2019-06-20T00:37:26.809Z,4.10
2019-06-20T00:39:57.563Z,4.40
2019-06-20T00:42:28.466Z,4.17
2019-06-20T00:44:58.885Z,4.10
2019-06-20T00:47:29.564Z,4.35
2019-06-20T00:50:00.397Z,4.60
2019-06-20T00:52:31.223Z,3.92
2019-06-20T00:55:01.724Z,4.40
2019-06-20T00:57:32.190Z,4.15
2019-06-20T01:00:03.542Z,4.67
2019-06-20T01:02:34.377Z,4.65
2019-06-20T01:05:06.749Z,4.20
2019-06-20T01:07:37.477Z,4.25
2019-06-20T01:10:09.383Z,3.95
2019-06-20T01:12:40.195Z,4.42
2019-06-20T01:15:11.127Z,4.00
2019-06-20T01:17:41.969Z,4.35
2019-06-20T01:20:13.934Z,3.60
2019-06-20T01:22:44.353Z,4.37
2019-06-20T01:25:15.383Z,5.10
2019-06-20T01:27:46.207Z,3.65
2019-06-20T01:30:16.941Z,3.50
2019-06-20T01:32:47.701Z,3.85
2019-06-20T01:35:18.639Z,3.50
2019-06-20T01:37:49.371Z,3.67
2019-06-20T01:40:20.207Z,3.42
2019-06-20T01:42:50.717Z,4.10
2019-06-20T01:45:21.572Z,3.67
2019-06-20T01:47:52.602Z,4.20
2019-06-20T01:50:23.513Z,3.87
2019-06-20T01:52:54.274Z,3.77
2019-06-20T01:55:25.209Z,3.90
2019-06-20T01:57:55.946Z,4.62
2019-06-20T02:00:47.969Z,4.12
2019-06-20T02:03:19.038Z,3.98
2019-06-20T02:05:49.852Z,3.83
2019-06-20T02:08:20.913Z,4.65
2019-06-20T02:10:51.719Z,3.92
2019-06-20T02:13:22.587Z,4.40
2019-06-20T02:15:53.050Z,9.03
2019-06-20T02:18:23.855Z,4.03
2019-06-20T02:20:58.222Z,4.45
2019-06-20T02:23:29.110Z,4.20
2019-06-20T02:25:59.597Z,3.70
2019-06-20T02:28:30.101Z,4.35
2019-06-20T02:31:00.563Z,5.80
2019-06-20T02:33:31.229Z,4.42
2019-06-20T02:36:01.725Z,4.85
2019-06-20T02:38:32.585Z,4.00
2019-06-20T02:41:03.076Z,5.55
2019-06-20T02:43:33.517Z,4.87
2019-06-20T02:46:04.063Z,4.60
2019-06-20T02:48:34.901Z,5.28
2019-06-20T02:51:05.753Z,5.17
2019-06-20T02:53:37.107Z,5.33
2019-06-20T02:56:07.830Z,6.33
2019-06-20T02:58:38.263Z,4.97
2019-06-20T03:01:09.097Z,4.83
2019-06-20T03:03:40.223Z,5.72
2019-06-20T03:06:10.979Z,5.47
2019-06-20T03:08:41.722Z,4.42
2019-06-20T03:11:12.533Z,4.92
2019-06-20T03:13:43.379Z,6.95
2019-06-20T03:16:14.223Z,6.08
2019-06-20T03:18:44.954Z,5.20
2019-06-20T03:21:15.415Z,5.73
2019-06-20T03:23:46.246Z,5.50
2019-06-20T03:26:17.599Z,5.97
2019-06-20T03:28:48.563Z,5.85
2019-06-20T03:31:19.011Z,5.80
2019-06-20T03:33:49.801Z,5.80
2019-06-20T03:36:20.619Z,6.05
2019-06-20T03:38:51.987Z,5.65
2019-06-20T03:41:22.435Z,7.03
2019-06-20T03:43:52.815Z,5.47
2019-06-20T03:46:23.531Z,6.95
2019-06-20T03:48:54.370Z,5.70
2019-06-20T03:51:25.223Z,5.42
2019-06-20T03:53:55.937Z,5.47
2019-06-20T03:56:26.438Z,5.20
2019-06-20T03:58:56.825Z,5.22
2019-06-20T04:01:27.646Z,4.60
2019-06-20T04:03:58.007Z,5.67
2019-06-20T04:06:28.697Z,7.25
2019-06-20T04:08:59.154Z,5.62
2019-06-20T04:11:29.869Z,5.87
2019-06-20T04:14:00.617Z,6.30
2019-06-20T04:16:31.393Z,6.78
2019-06-20T04:19:01.826Z,5.83
2019-06-20T04:21:32.307Z,6.17
2019-06-20T04:24:02.694Z,6.87
2019-06-20T04:26:33.899Z,5.78
2019-06-20T04:29:04.704Z,6.00
2019-06-20T04:31:35.527Z,5.83
2019-06-20T04:34:06.383Z,5.10
2019-06-20T04:36:37.201Z,5.50
2019-06-20T04:39:18.783Z,5.12
2019-06-20T04:41:40.365Z,5.25
2019-06-20T04:44:11.144Z,5.62
2019-06-20T04:46:43.726Z,5.33
2019-06-20T04:49:14.569Z,5.72
2019-06-20T04:51:45.291Z,5.70
2019-06-20T04:54:16.043Z,6.50
2019-06-20T04:56:46.433Z,6.90
2019-06-20T04:59:17.183Z,6.15
2019-06-20T05:01:48.076Z,7.87
2019-06-20T05:04:18.910Z,5.22
2019-06-20T05:06:52.912Z,7.70
2019-06-20T05:09:23.780Z,5.80
2019-06-20T05:11:54.239Z,4.40
2019-06-20T05:14:24.623Z,5.00
2019-06-20T05:16:55.054Z,5.03
2019-06-20T05:19:25.550Z,6.17
2019-06-20T05:21:55.977Z,4.90
2019-06-20T05:24:26.739Z,4.67
2019-06-20T05:26:57.541Z,4.72
2019-06-20T05:30:07.449Z,4.45
2019-06-20T05:32:38.251Z,4.72
2019-06-20T05:35:09.191Z,5.15
2019-06-20T05:37:40.123Z,5.28
2019-06-20T05:40:10.987Z,4.35
2019-06-20T05:42:41.691Z,6.87
2019-06-20T05:45:12.595Z,5.60
2019-06-20T05:47:43.528Z,5.37
2019-06-20T05:50:14.391Z,6.67
2019-06-20T05:52:44.783Z,5.10
2019-06-20T05:55:15.757Z,4.80
2019-06-20T05:57:46.500Z,4.65
2019-06-20T06:00:17.364Z,4.87
2019-06-20T06:02:47.917Z,5.97
2019-06-20T06:05:19.394Z,5.97
2019-06-20T06:07:50.255Z,7.10
2019-06-20T06:10:20.779Z,6.62
2019-06-20T06:12:51.646Z,5.33
2019-06-20T06:15:22.629Z,5.53
2019-06-20T06:17:53.086Z,6.45
2019-06-20T06:20:24.145Z,7.53
2019-06-20T06:22:54.945Z,8.30
2019-06-20T06:25:25.364Z,6.80
2019-06-20T06:27:55.831Z,7.35
2019-06-20T06:30:26.847Z,6.55
2019-06-20T06:32:57.610Z,7.17
2019-06-20T06:35:28.431Z,7.03
2019-06-20T06:37:58.960Z,6.95
2019-06-20T06:40:29.800Z,7.75
2019-06-20T06:43:00.678Z,7.45
2019-06-20T06:45:31.479Z,7.62
2019-06-20T06:48:02.421Z,7.10
2019-06-20T06:50:37.057Z,7.62
2019-06-20T06:53:32.187Z,7.23
2019-06-20T06:56:02.681Z,8.00
2019-06-20T06:58:33.419Z,7.70
2019-06-20T07:01:05.426Z,7.30
2019-06-20T07:03:54.732Z,7.70
2019-06-20T07:06:31.497Z,7.08
2019-06-20T07:09:02.360Z,7.28
2019-06-20T07:11:33.632Z,7.25
2019-06-20T07:14:08.320Z,6.70
2019-06-20T07:16:40.609Z,6.75
2019-06-20T07:19:11.000Z,6.33
2019-06-20T07:21:41.773Z,6.58
2019-06-20T07:24:12.589Z,6.95
2019-06-20T07:26:43.631Z,6.87
2019-06-20T07:29:14.466Z,6.83
2019-06-20T07:31:45.307Z,7.08
2019-06-20T07:34:16.416Z,6.95
2019-06-20T07:36:47.332Z,7.37
2019-06-20T07:39:18.031Z,7.42
2019-06-20T07:41:51.045Z,7.12
2019-06-20T07:44:21.640Z,7.37
2019-06-20T07:46:52.689Z,6.97
2019-06-20T07:49:23.524Z,6.95
2019-06-20T07:51:55.557Z,6.50
2019-06-20T07:54:28.347Z,7.65
2019-06-20T07:57:00.323Z,7.03
2019-06-20T07:59:35.287Z,6.67
2019-06-20T08:02:05.913Z,6.60
2019-06-20T08:04:36.368Z,6.45
2019-06-20T08:07:07.034Z,6.95
2019-06-20T08:09:44.784Z,7.17
2019-06-20T08:12:10.217Z,7.05
2019-06-20T08:14:41.060Z,6.85
2019-06-20T08:17:12.056Z,5.92
2019-06-20T08:19:42.890Z,6.83
2019-06-20T08:22:13.728Z,6.92
2019-06-20T08:24:44.776Z,6.75
2019-06-20T08:27:15.463Z,7.97
2019-06-20T08:29:46.420Z,6.28
2019-06-20T08:32:20.703Z,6.33
2019-06-20T08:34:51.525Z,6.10
2019-06-20T08:37:22.573Z,5.20
2019-06-20T08:39:53.604Z,5.15
2019-06-20T08:42:24.425Z,5.33
2019-06-20T08:44:56.229Z,7.90
2019-06-20T08:47:26.967Z,5.35
2019-06-20T08:50:03.855Z,5.47
2019-06-20T08:52:34.993Z,5.95
2019-06-20T08:55:07.252Z,5.50
2019-06-20T08:57:37.823Z,5.30
2019-06-20T09:00:20.672Z,4.92
2019-06-20T09:02:51.599Z,4.92
2019-06-20T09:05:23.410Z,5.15
2019-06-20T09:07:55.359Z,5.35
2019-06-20T09:10:33.865Z,4.85
2019-06-20T09:13:05.013Z,6.37
2019-06-20T09:15:36.319Z,6.30
2019-06-20T09:18:08.128Z,4.97
2019-06-20T09:20:39.129Z,5.40
2019-06-20T09:23:16.330Z,6.20
2019-06-20T09:25:47.165Z,5.92
2019-06-20T09:28:18.000Z,8.48
2019-06-20T09:30:49.045Z,6.12
2019-06-20T09:33:19.875Z,6.03
2019-06-20T09:35:52.150Z,5.70
2019-06-20T09:38:24.423Z,6.30
2019-06-20T09:40:55.351Z,6.78
2019-06-20T09:43:27.867Z,4.50
2019-06-20T09:45:58.453Z,5.62
2019-06-20T09:48:29.193Z,5.53
2019-06-20T09:50:59.958Z,6.33
2019-06-20T09:53:30.502Z,6.85
2019-06-20T09:56:01.235Z,4.87
2019-06-20T09:58:32.118Z,7.42
2019-06-20T10:01:04.870Z,5.20
2019-06-20T10:03:35.635Z,5.15
2019-06-20T10:06:13.771Z,5.37
2019-06-20T10:08:38.950Z,5.72
2019-06-20T10:11:09.327Z,5.40
2019-06-20T10:13:40.115Z,6.10
2019-06-20T10:16:10.915Z,5.47
2019-06-20T10:18:41.681Z,5.72
2019-06-20T10:21:12.415Z,5.75
2019-06-20T10:23:43.372Z,7.08
2019-06-20T10:26:14.088Z,5.90
2019-06-20T10:28:45.813Z,5.75
2019-06-20T10:31:16.933Z,5.58
2019-06-20T10:33:48.440Z,5.95
2019-06-20T10:36:19.150Z,7.25
2019-06-20T10:38:50.374Z,6.00
2019-06-20T10:41:21.344Z,5.97
2019-06-20T10:43:51.909Z,5.33
2019-06-20T10:46:22.760Z,5.30
2019-06-20T10:48:56.649Z,4.80
2019-06-20T10:51:49.632Z,6.60
2019-06-20T10:54:10.728Z,5.22
2019-06-20T10:56:42.252Z,5.15
2019-06-20T10:59:14.319Z,4.97
2019-06-20T11:01:46.525Z,4.70
2019-06-20T11:04:19.127Z,4.70
2019-06-20T11:06:50.034Z,5.03
2019-06-20T11:09:20.873Z,5.03
2019-06-20T11:11:51.631Z,5.00
2019-06-20T11:14:22.533Z,5.05
2019-06-20T11:16:53.065Z,5.95
2019-06-20T11:19:23.597Z,5.00
2019-06-20T11:21:54.560Z,4.45
2019-06-20T11:24:25.555Z,4.58
2019-06-20T11:26:56.094Z,4.72
2019-06-20T11:29:26.951Z,4.87
2019-06-20T11:31:57.759Z,4.87
2019-06-20T11:34:28.591Z,4.65
2019-06-20T11:36:59.353Z,5.10
2019-06-20T11:39:30.284Z,4.55
2019-06-20T11:42:02.530Z,5.15
2019-06-20T11:44:35.381Z,4.60
2019-06-20T11:47:07.299Z,5.08
2019-06-20T11:49:40.464Z,4.80
2019-06-20T11:52:11.229Z,3.87
2019-06-20T11:54:42.512Z,3.80
2019-06-20T11:57:13.413Z,4.37
2019-06-20T11:59:43.926Z,4.60
2019-06-20T12:02:17.111Z,4.58
2019-06-20T12:04:49.524Z,4.15
2019-06-20T12:07:20.438Z,6.17
2019-06-20T12:09:51.271Z,5.40
2019-06-20T12:12:21.842Z,4.78
2019-06-20T12:14:52.882Z,4.87
2019-06-20T12:17:23.684Z,4.97
2019-06-20T12:19:54.469Z,4.15
2019-06-20T12:22:25.257Z,4.05
2019-06-20T12:24:55.715Z,4.83
2019-06-20T12:27:32.216Z,3.95
2019-06-20T12:30:05.285Z,3.40
2019-06-20T12:32:36.191Z,4.28
2019-06-20T12:35:07.303Z,3.65
2019-06-20T12:37:40.356Z,3.92
2019-06-20T12:40:11.499Z,3.85
2019-06-20T12:42:43.187Z,3.83
2019-06-20T12:45:17.413Z,4.42
2019-06-20T12:47:47.844Z,3.87
2019-06-20T12:50:18.625Z,3.50
2019-06-20T12:52:49.670Z,5.45
2019-06-20T12:55:22.580Z,4.30
2019-06-20T12:57:53.460Z,3.77
2019-06-20T13:00:24.523Z,4.22
2019-06-20T13:02:55.333Z,3.80
2019-06-20T13:05:28.590Z,4.55
2019-06-20T13:07:59.419Z,4.90
2019-06-20T13:10:29.875Z,4.40
2019-06-20T13:13:00.764Z,4.33
2019-06-20T13:15:31.194Z,4.60
2019-06-20T13:18:02.026Z,4.40
2019-06-20T13:20:32.534Z,4.80
2019-06-20T13:23:03.572Z,5.05
2019-06-20T13:25:33.950Z,4.95
2019-06-20T13:28:04.940Z,4.62
2019-06-20T13:30:35.758Z,6.70
2019-06-20T13:33:06.257Z,5.47
2019-06-20T13:35:37.035Z,4.67
2019-06-20T13:38:07.455Z,7.65
2019-06-20T13:40:39.586Z,5.28
2019-06-20T13:43:09.940Z,5.72
2019-06-20T13:45:42.229Z,6.15
2019-06-20T13:48:13.355Z,5.47
2019-06-20T13:50:45.269Z,5.50
2019-06-20T13:53:16.532Z,5.05
2019-06-20T13:55:47.755Z,5.30
2019-06-20T13:58:19.461Z,5.45
2019-06-20T14:00:51.006Z,5.90
2019-06-20T14:03:21.755Z,6.35
2019-06-20T14:05:53.686Z,6.28
2019-06-20T14:08:25.279Z,6.47
2019-06-20T14:10:56.607Z,6.78
2019-06-20T14:13:27.095Z,6.12
2019-06-20T14:15:57.571Z,6.65
2019-06-20T14:18:30.387Z,6.00
2019-06-20T14:21:01.431Z,5.65
2019-06-20T14:23:31.891Z,6.50
2019-06-20T14:26:02.650Z,6.20
2019-06-20T14:28:33.544Z,6.70
2019-06-20T14:31:04.392Z,5.50
2019-06-20T14:33:35.097Z,6.30
2019-06-20T14:36:05.934Z,6.15
2019-06-20T14:38:36.393Z,6.15
2019-06-20T14:41:07.203Z,6.58
2019-06-20T14:43:38.037Z,6.80
2019-06-20T14:46:08.568Z,6.78
2019-06-20T14:48:39.105Z,6.42
2019-06-20T14:51:10.447Z,7.08
2019-06-20T14:53:41.324Z,6.17
2019-06-20T14:56:12.238Z,6.15
2019-06-20T14:58:44.768Z,6.53
2019-06-20T15:01:15.702Z,6.47
2019-06-20T15:03:47.403Z,6.35
2019-06-20T15:06:20.005Z,5.78
2019-06-20T15:08:53.573Z,5.90
2019-06-20T15:11:23.584Z,7.75
2019-06-20T15:13:56.765Z,5.75
2019-06-20T15:16:27.637Z,5.40
2019-06-20T15:18:58.144Z,5.33
2019-06-20T15:21:29.006Z,5.35
2019-06-20T15:23:59.510Z,5.40
2019-06-20T15:26:30.522Z,5.28
2019-06-20T15:29:01.321Z,4.90
2019-06-20T15:31:32.146Z,5.10
2019-06-20T15:34:02.726Z,5.00
2019-06-20T15:36:33.605Z,4.92
2019-06-20T15:39:06.440Z,4.83
2019-06-20T15:41:37.457Z,5.33
2019-06-20T15:44:09.471Z,4.92
2019-06-20T15:46:40.378Z,4.87
2019-06-20T15:49:16.044Z,5.40
2019-06-20T15:51:43.333Z,5.35
2019-06-20T15:54:14.170Z,5.53
2019-06-20T15:56:44.909Z,5.47
2019-06-20T15:59:15.738Z,5.47
2019-06-20T16:01:46.673Z,7.03
2019-06-20T16:04:17.504Z,5.25
2019-06-20T16:06:48.593Z,6.33
2019-06-20T16:09:19.765Z,5.60
2019-06-20T16:11:50.744Z,5.42
2019-06-20T16:14:21.603Z,4.97
2019-06-20T16:16:52.093Z,5.40
2019-06-20T16:19:22.958Z,4.72
2019-06-20T16:21:53.439Z,4.90
2019-06-20T16:24:24.257Z,4.58
2019-06-20T16:26:55.322Z,5.30
2019-06-20T16:29:26.197Z,4.80
2019-06-20T16:31:57.020Z,4.70
2019-06-20T16:34:27.482Z,5.92
2019-06-20T16:37:09.819Z,6.30
2019-06-20T16:39:30.390Z,4.75
2019-06-20T16:42:00.804Z,4.58
2019-06-20T16:44:31.547Z,4.17
2019-06-20T16:47:02.354Z,4.70
2019-06-20T16:49:33.250Z,4.40
2019-06-20T16:52:03.697Z,4.95
2019-06-20T16:54:34.498Z,5.00
2019-06-20T16:57:05.387Z,4.53
2019-06-20T16:59:36.331Z,4.28
2019-06-20T17:02:07.171Z,4.15
2019-06-20T17:04:37.693Z,4.42
2019-06-20T17:07:08.192Z,4.20
2019-06-20T17:09:38.678Z,4.37
2019-06-20T17:15:58.981Z,5.42
2019-06-20T17:18:30.067Z,8.03
2019-06-20T17:21:00.955Z,4.78
2019-06-20T17:23:31.895Z,5.60
2019-06-20T17:26:02.693Z,5.08
2019-06-20T17:28:33.133Z,5.58
2019-06-20T17:31:03.578Z,6.65
2019-06-20T17:33:34.315Z,5.03
2019-06-20T17:36:17.989Z,5.35
2019-06-20T17:38:37.358Z,4.90
2019-06-20T17:41:08.152Z,5.12
2019-06-20T17:43:38.926Z,5.12
2019-06-20T17:46:09.760Z,4.55
2019-06-20T17:48:40.315Z,5.20
2019-06-20T17:51:10.784Z,4.97
2019-06-20T17:53:41.516Z,5.05
2019-06-20T17:56:12.387Z,4.58
2019-06-20T17:58:42.840Z,5.83
2019-06-20T18:01:13.645Z,4.62
2019-06-20T18:03:44.470Z,8.88
2019-06-20T18:06:17.098Z,5.10
2019-06-20T18:08:47.933Z,4.80
2019-06-20T18:11:18.714Z,5.70
2019-06-20T18:13:49.544Z,5.47
2019-06-20T18:16:25.212Z,5.60
2019-06-20T18:18:52.607Z,5.60
2019-06-20T18:21:23.166Z,5.85
2019-06-20T18:23:53.864Z,5.62
2019-06-20T18:26:24.745Z,5.20
2019-06-20T18:28:55.485Z,5.25
2019-06-20T18:31:26.238Z,4.78
2019-06-20T18:33:56.641Z,5.87
2019-06-20T18:36:27.093Z,4.40
2019-06-20T18:38:57.531Z,4.78
2019-06-20T18:41:28.058Z,5.37
2019-06-20T18:43:58.786Z,5.78
2019-06-20T18:46:29.624Z,5.95
2019-06-20T18:49:00.560Z,6.12
2019-06-20T18:51:31.086Z,6.90
2019-06-20T18:54:01.964Z,5.80
2019-06-20T18:56:32.926Z,5.35
2019-06-20T18:59:04.283Z,5.55
2019-06-20T19:01:35.190Z,5.58
2019-06-20T19:04:06.096Z,5.30
2019-06-20T19:06:36.824Z,5.60
2019-06-20T19:09:10.651Z,6.00
2019-06-20T19:11:41.646Z,6.70
2019-06-20T19:14:12.841Z,5.33
2019-06-20T19:16:43.958Z,5.22
2019-06-20T19:19:14.817Z,5.55
2019-06-20T19:21:45.339Z,7.53
2019-06-20T19:24:15.759Z,6.87
2019-06-20T19:26:48.083Z,7.47
2019-06-20T19:29:19.308Z,6.80
2019-06-20T19:31:49.766Z,7.05
2019-06-20T19:34:20.638Z,7.58
2019-06-20T19:36:51.086Z,7.22
2019-06-20T19:39:21.920Z,6.58
2019-06-20T19:41:52.364Z,5.90
2019-06-20T19:44:23.194Z,5.78
2019-06-20T19:46:54.157Z,6.28
2019-06-20T19:49:25.068Z,6.60
2019-06-20T19:51:55.977Z,6.17
2019-06-20T19:54:26.816Z,5.90
2019-06-20T19:56:57.578Z,5.90
2019-06-20T19:59:28.503Z,6.55
2019-06-20T20:01:59.316Z,6.37
2019-06-20T20:04:29.905Z,6.87
2019-06-20T20:07:00.796Z,6.40
2019-06-20T20:09:31.558Z,6.08
2019-06-20T20:12:02.305Z,6.28
2019-06-20T20:14:33.230Z,6.50
2019-06-20T20:17:04.084Z,6.30
2019-06-20T20:19:34.992Z,6.70
2019-06-20T20:22:06.698Z,8.03
2019-06-20T20:24:37.780Z,7.45
2019-06-20T20:27:08.228Z,7.28
2019-06-20T20:29:39.052Z,6.10
2019-06-20T20:32:09.811Z,6.72
2019-06-20T20:34:40.484Z,6.72
2019-06-20T20:37:11.307Z,6.50
2019-06-20T20:39:41.796Z,8.13
2019-06-20T20:42:12.317Z,6.53
2019-06-20T20:44:43.129Z,7.17
2019-06-20T20:47:13.743Z,7.05
2019-06-20T20:49:44.398Z,14.87
2019-06-20T20:52:15.766Z,15.95
2019-06-20T20:54:46.688Z,8.85
2019-06-20T20:57:17.967Z,7.80
2019-06-20T20:59:49.184Z,7.28
2019-06-20T21:02:19.645Z,7.67
2019-06-20T21:04:50.448Z,7.90
2019-06-20T21:07:21.288Z,8.03
2019-06-20T21:09:51.920Z,8.05
2019-06-20T21:12:22.439Z,8.25
2019-06-20T21:14:53.393Z,7.97
2019-06-20T21:17:26.834Z,8.63
2019-06-20T21:19:57.577Z,8.40
2019-06-20T21:22:28.381Z,7.97
2019-06-20T21:24:59.504Z,7.97
2019-06-20T21:27:32.275Z,7.95
2019-06-20T21:30:03.417Z,8.00
2019-06-20T21:32:34.300Z,7.67
2019-06-20T21:35:09.734Z,8.30
2019-06-20T21:37:40.532Z,8.55
2019-06-20T21:40:11.318Z,7.90
2019-06-20T21:42:44.621Z,7.75
2019-06-20T21:45:17.056Z,8.48
2019-06-20T21:47:48.615Z,8.70
2019-06-20T21:50:19.550Z,7.78
2019-06-20T21:52:50.902Z,7.83
2019-06-20T21:55:21.735Z,6.85
2019-06-20T21:57:52.995Z,7.55
2019-06-20T22:00:39.959Z,8.20
2019-06-20T22:03:10.955Z,7.83
2019-06-20T22:05:41.408Z,8.13
2019-06-20T22:08:15.880Z,8.20
2019-06-20T22:10:46.538Z,9.30
2019-06-20T22:13:17.390Z,9.00
2019-06-20T22:15:49.678Z,8.80
2019-06-20T22:18:20.523Z,8.45
2019-06-20T22:20:51.314Z,8.30
2019-06-20T22:23:23.663Z,9.43
2019-06-20T22:25:54.317Z,9.45
2019-06-20T22:28:25.140Z,10.50
2019-06-20T22:30:57.218Z,9.68
2019-06-20T22:33:28.965Z,9.78
2019-06-20T22:35:59.706Z,10.15
2019-06-20T22:38:30.493Z,10.88
2019-06-20T22:41:01.314Z,10.85
2019-06-20T22:43:33.406Z,10.30
2019-06-20T22:46:04.423Z,10.90
2019-06-20T22:48:38.576Z,10.80
2019-06-20T22:51:09.447Z,11.22
2019-06-20T22:53:41.494Z,10.98
2019-06-20T22:56:13.878Z,11.08
2019-06-20T22:58:44.747Z,11.38
2019-06-20T23:01:15.366Z,11.15
2019-06-20T23:03:46.284Z,12.23
2019-06-20T23:06:16.686Z,13.08
2019-06-20T23:08:47.859Z,14.20
2019-06-20T23:11:23.525Z,12.98
2019-06-20T23:13:54.438Z,13.98
2019-06-20T23:16:26.338Z,11.90
2019-06-20T23:18:57.280Z,12.13
2019-06-20T23:21:27.874Z,14.25
2019-06-20T23:23:58.609Z,12.40
2019-06-20T23:26:29.427Z,12.05
2019-06-20T23:29:20.336Z,13.30
2019-06-20T23:31:52.220Z,13.32
2019-06-20T23:34:30.224Z,12.25
2019-06-20T23:37:12.200Z,14.20
2019-06-20T23:39:33.325Z,13.43
2019-06-20T23:42:04.158Z,13.25
2019-06-20T23:44:34.890Z,12.73
2019-06-20T23:47:05.505Z,12.53
2019-06-20T23:49:36.364Z,13.28
2019-06-20T23:52:08.758Z,12.88
2019-06-20T23:54:39.302Z,12.63
2019-06-20T23:57:10.134Z,12.85
2019-06-20T23:59:40.963Z,12.82
